Woodville, Missouri
Current Conditions -  °F | °C
As of 10:55 PM on Tuesday 25 Nov 2014 (Local Time) from KIRK Reporting Station
Clear Clear  
Wind Chill: 19°   Ceiling: Unl
Heat Index: 27°   Visibility: 10mi
Dew Point: 20°   Wind: 7mph
Humidity: 75%   Direction: 150°SSE
Pressure: 30.08"   Gusts: NA
Location:  39.6493°N, 92.4492°W
Report Text: KIRK 260455Z AUTO 15006KT 10SM CLR M03/M07 A3008 RMK AO2 SLP202 T10281067
Loading
Personal Weather Stations






























Interactive Weather Map New forecast layout! Learn more

10-Day Weather Forecast

Advertisements
Track Severe Weather on mobile